sensor_id;sensor_type;location;lat;lon;timestamp;pressure;altitude;pressure_sealevel;temperature;humidity
77281;BME280;66339;47.262;17.144;2022-12-26T00:01:46;100490.88;;;21.08;43.65
77281;BME280;66339;47.262;17.144;2022-12-26T00:04:13;100485.78;;;21.06;43.51
77281;BME280;66339;47.262;17.144;2022-12-26T00:07:03;100500.28;;;21.05;43.50
77281;BME280;66339;47.262;17.144;2022-12-26T00:09:31;100491.44;;;21.05;43.51
77281;BME280;66339;47.262;17.144;2022-12-26T00:11:58;100486.84;;;21.05;43.49
77281;BME280;66339;47.262;17.144;2022-12-26T00:14:28;100487.94;;;21.04;43.57
77281;BME280;66339;47.262;17.144;2022-12-26T00:16:57;100484.72;;;21.02;43.55
77281;BME280;66339;47.262;17.144;2022-12-26T00:19:24;100488.50;;;21.01;43.50
77281;BME280;66339;47.262;17.144;2022-12-26T00:21:51;100485.00;;;21.01;43.42
77281;BME280;66339;47.262;17.144;2022-12-26T00:24:18;100489.59;;;21.00;43.46
77281;BME280;66339;47.262;17.144;2022-12-26T00:26:51;100481.53;;;21.00;43.41
77281;BME280;66339;47.262;17.144;2022-12-26T00:29:18;100475.59;;;20.98;43.50
77281;BME280;66339;47.262;17.144;2022-12-26T00:31:48;100473.75;;;20.99;43.52
77281;BME280;66339;47.262;17.144;2022-12-26T00:34:15;100472.41;;;20.96;43.44
77281;BME280;66339;47.262;17.144;2022-12-26T00:36:42;100475.09;;;20.96;43.48
77281;BME280;66339;47.262;17.144;2022-12-26T00:39:18;100472.41;;;20.96;43.42
77281;BME280;66339;47.262;17.144;2022-12-26T00:41:45;100472.72;;;20.95;43.48
77281;BME280;66339;47.262;17.144;2022-12-26T00:44:12;100484.53;;;20.94;43.50
77281;BME280;66339;47.262;17.144;2022-12-26T00:46:41;100496.09;;;20.94;43.40
77281;BME280;66339;47.262;17.144;2022-12-26T00:49:12;100493.38;;;20.94;43.38
77281;BME280;66339;47.262;17.144;2022-12-26T00:51:39;100483.22;;;20.91;43.40
77281;BME280;66339;47.262;17.144;2022-12-26T00:54:05;100492.34;;;20.90;43.41
77281;BME280;66339;47.262;17.144;2022-12-26T00:56:32;100492.34;;;20.90;43.40
77281;BME280;66339;47.262;17.144;2022-12-26T00:58:59;100486.97;;;20.90;43.39
77281;BME280;66339;47.262;17.144;2022-12-26T01:01:31;100486.47;;;20.88;43.40
77281;BME280;66339;47.262;17.144;2022-12-26T01:03:58;100489.16;;;20.88;43.43
77281;BME280;66339;47.262;17.144;2022-12-26T01:06:25;100491.84;;;20.88;43.38
77281;BME280;66339;47.262;17.144;2022-12-26T01:08:52;100491.03;;;20.88;43.44
77281;BME280;66339;47.262;17.144;2022-12-26T01:11:19;100484.03;;;20.87;43.43
77281;BME280;66339;47.262;17.144;2022-12-26T01:13:46;100483.25;;;20.86;43.38
77281;BME280;66339;47.262;17.144;2022-12-26T01:16:13;100476.25;;;20.85;43.40
77281;BME280;66339;47.262;17.144;2022-12-26T01:18:40;100475.75;;;20.83;43.37
77281;BME280;66339;47.262;17.144;2022-12-26T01:21:09;100476.81;;;20.82;43.40
77281;BME280;66339;47.262;17.144;2022-12-26T01:23:36;100473.34;;;20.81;43.42
77281;BME280;66339;47.262;17.144;2022-12-26T01:26:11;100483.28;;;20.81;43.40
77281;BME280;66339;47.262;17.144;2022-12-26T01:28:49;100489.75;;;20.80;43.43
77281;BME280;66339;47.262;17.144;2022-12-26T01:31:16;100472.81;;;20.79;43.57
77281;BME280;66339;47.262;17.144;2022-12-26T01:33:46;100472.03;;;20.79;43.41
77281;BME280;66339;47.262;17.144;2022-12-26T01:36:13;100472.03;;;20.79;43.42
77281;BME280;66339;47.262;17.144;2022-12-26T01:38:41;100465.81;;;20.78;43.41
77281;BME280;66339;47.262;17.144;2022-12-26T01:41:08;100461.81;;;20.76;43.40
77281;BME280;66339;47.262;17.144;2022-12-26T01:46:30;100455.66;;;20.75;43.41
77281;BME280;66339;47.262;17.144;2022-12-26T01:49:01;100460.19;;;20.75;43.38
77281;BME280;66339;47.262;17.144;2022-12-26T01:51:35;100448.94;;;20.73;43.36
77281;BME280;66339;47.262;17.144;2022-12-26T01:54:09;100450.03;;;20.72;43.37
77281;BME280;66339;47.262;17.144;2022-12-26T01:56:57;100457.31;;;20.71;43.42
77281;BME280;66339;47.262;17.144;2022-12-26T01:59:31;100454.31;;;20.73;43.42
77281;BME280;66339;47.262;17.144;2022-12-26T02:02:02;100459.16;;;20.71;43.37
77281;BME280;66339;47.262;17.144;2022-12-26T02:04:40;100462.94;;;20.70;43.40
77281;BME280;66339;47.262;17.144;2022-12-26T02:07:09;100468.31;;;20.70;43.40
77281;BME280;66339;47.262;17.144;2022-12-26T02:09:36;100484.72;;;20.68;43.41
77281;BME280;66339;47.262;17.144;2022-12-26T02:12:39;100485.53;;;20.69;43.40
77281;BME280;66339;47.262;17.144;2022-12-26T02:15:10;100482.31;;;20.67;43.39
77281;BME280;66339;47.262;17.144;2022-12-26T02:17:42;100478.81;;;20.66;43.35
77281;BME280;66339;47.262;17.144;2022-12-26T02:31:27;100489.31;;;20.63;43.40
77281;BME280;66339;47.262;17.144;2022-12-26T02:45:01;100471.34;;;20.58;43.41
77281;BME280;66339;47.262;17.144;2022-12-26T02:55:23;100462.78;;;20.56;43.50
77281;BME280;66339;47.262;17.144;2022-12-26T02:58:05;100472.72;;;20.55;43.42
77281;BME280;66339;47.262;17.144;2022-12-26T03:00:37;100478.09;;;20.55;43.42
77281;BME280;66339;47.262;17.144;2022-12-26T03:03:27;100475.69;;;20.54;43.47
77281;BME280;66339;47.262;17.144;2022-12-26T03:06:05;100467.91;;;20.52;43.50
77281;BME280;66339;47.262;17.144;2022-12-26T03:08:38;100474.87;;;20.53;43.43
77281;BME280;66339;47.262;17.144;2022-12-26T03:11:08;100466.28;;;20.51;43.44
77281;BME280;66339;47.262;17.144;2022-12-26T03:13:38;100475.44;;;20.50;43.44
77281;BME280;66339;47.262;17.144;2022-12-26T03:16:10;100498.00;;;20.49;43.46
77281;BME280;66339;47.262;17.144;2022-12-26T03:18:46;100492.06;;;20.47;43.49
77281;BME280;66339;47.262;17.144;2022-12-26T03:21:34;100491.28;;;20.47;43.42
77281;BME280;66339;47.262;17.144;2022-12-26T03:24:09;100485.09;;;20.46;43.48
77281;BME280;66339;47.262;17.144;2022-12-26T03:26:41;100501.50;;;20.45;43.45
77281;BME280;66339;47.262;17.144;2022-12-26T03:29:16;100505.00;;;20.45;43.42
77281;BME280;66339;47.262;17.144;2022-12-26T03:31:44;100501.50;;;20.45;43.45
77281;BME280;66339;47.262;17.144;2022-12-26T03:34:20;100503.41;;;20.44;43.46
77281;BME280;66339;47.262;17.144;2022-12-26T03:42:59;100500.16;;;20.42;43.45
77281;BME280;66339;47.262;17.144;2022-12-26T03:45:36;100519.25;;;20.41;43.55
77281;BME280;66339;47.262;17.144;2022-12-26T03:48:34;100513.88;;;20.41;43.46
77281;BME280;66339;47.262;17.144;2022-12-26T03:51:11;100528.41;;;20.40;43.48
77281;BME280;66339;47.262;17.144;2022-12-26T03:53:49;100518.47;;;20.40;43.46
77281;BME280;66339;47.262;17.144;2022-12-26T03:56:28;100531.91;;;20.40;43.45
77281;BME280;66339;47.262;17.144;2022-12-26T03:59:10;100522.22;;;20.39;43.46
77281;BME280;66339;47.262;17.144;2022-12-26T04:01:42;100529.75;;;20.37;43.49
77281;BME280;66339;47.262;17.144;2022-12-26T04:04:17;100536.22;;;20.36;43.49
77281;BME280;66339;47.262;17.144;2022-12-26T04:06:54;100536.47;;;20.34;43.53
77281;BME280;66339;47.262;17.144;2022-12-26T04:09:35;100535.69;;;20.34;43.51
77281;BME280;66339;47.262;17.144;2022-12-26T04:12:04;100534.88;;;20.33;43.53
77281;BME280;66339;47.262;17.144;2022-12-26T04:17:29;100537.84;;;20.32;43.55
77281;BME280;66339;47.262;17.144;2022-12-26T04:20:04;100546.97;;;20.31;43.51
77281;BME280;66339;47.262;17.144;2022-12-26T04:22:44;100537.31;;;20.30;43.49
77281;BME280;66339;47.262;17.144;2022-12-26T04:25:21;100533.03;;;20.29;43.55
77281;BME280;66339;47.262;17.144;2022-12-26T04:28:10;100523.06;;;20.29;43.48
77281;BME280;66339;47.262;17.144;2022-12-26T04:30:40;100529.25;;;20.30;43.52
77281;BME280;66339;47.262;17.144;2022-12-26T04:33:27;100526.03;;;20.28;43.54
77281;BME280;66339;47.262;17.144;2022-12-26T04:36:09;100529.78;;;20.27;43.54
77281;BME280;66339;47.262;17.144;2022-12-26T04:38:55;100531.41;;;20.28;43.49
77281;BME280;66339;47.262;17.144;2022-12-26T04:41:26;100542.41;;;20.26;43.54
77281;BME280;66339;47.262;17.144;2022-12-26T04:43:59;100530.88;;;20.26;43.51
77281;BME280;66339;47.262;17.144;2022-12-26T04:46:28;100532.75;;;20.25;43.55
77281;BME280;66339;47.262;17.144;2022-12-26T04:48:57;100534.66;;;20.25;43.57
77281;BME280;66339;47.262;17.144;2022-12-26T04:51:25;100540.03;;;20.25;43.55
77281;BME280;66339;47.262;17.144;2022-12-26T04:53:55;100532.22;;;20.23;43.60
77281;BME280;66339;47.262;17.144;2022-12-26T04:56:22;100526.84;;;20.23;43.57
77281;BME280;66339;47.262;17.144;2022-12-26T04:58:49;100527.12;;;20.22;43.60
77281;BME280;66339;47.262;17.144;2022-12-26T05:01:16;100536.28;;;20.21;43.63
77281;BME280;66339;47.262;17.144;2022-12-26T05:03:46;100526.59;;;20.20;43.65
77281;BME280;66339;47.262;17.144;2022-12-26T05:06:16;100530.91;;;20.21;43.62
77281;BME280;66339;47.262;17.144;2022-12-26T05:08:45;100534.66;;;20.20;43.65
77281;BME280;66339;47.262;17.144;2022-12-26T05:11:15;100525.53;;;20.21;43.63
77281;BME280;66339;47.262;17.144;2022-12-26T05:13:45;100523.91;;;20.20;43.66
77281;BME280;66339;47.262;17.144;2022-12-26T05:16:12;100523.91;;;20.20;43.67
77281;BME280;66339;47.262;17.144;2022-12-26T05:18:42;100523.91;;;20.20;43.66
77281;BME280;66339;47.262;17.144;2022-12-26T05:21:13;100525.78;;;20.19;43.69
77281;BME280;66339;47.262;17.144;2022-12-26T05:23:41;100523.91;;;20.20;43.74
77281;BME280;66339;47.262;17.144;2022-12-26T05:26:28;100507.78;;;20.20;43.76
77281;BME280;66339;47.262;17.144;2022-12-26T05:28:59;100507.78;;;20.20;43.82
77281;BME280;66339;47.262;17.144;2022-12-26T05:31:26;100506.19;;;20.19;43.85
77281;BME280;66339;47.262;17.144;2022-12-26T05:34:02;100505.41;;;20.18;43.79
77281;BME280;66339;47.262;17.144;2022-12-26T05:36:36;100520.72;;;20.18;43.78
77281;BME280;66339;47.262;17.144;2022-12-26T05:39:04;100510.78;;;20.18;43.75
77281;BME280;66339;47.262;17.144;2022-12-26T05:41:31;100510.78;;;20.18;43.83
77281;BME280;66339;47.262;17.144;2022-12-26T05:43:58;100516.94;;;20.19;43.95
77281;BME280;66339;47.262;17.144;2022-12-26T05:46:26;100516.13;;;20.18;44.04
77281;BME280;66339;47.262;17.144;2022-12-26T05:48:53;100519.63;;;20.19;44.13
77281;BME280;66339;47.262;17.144;2022-12-26T05:51:20;100517.75;;;20.19;44.14
77281;BME280;66339;47.262;17.144;2022-12-26T05:53:52;100522.31;;;20.19;44.29
77281;BME280;66339;47.262;17.144;2022-12-26T05:56:22;100520.72;;;20.18;44.39
77281;BME280;66339;47.262;17.144;2022-12-26T05:58:56;100516.13;;;20.18;44.39
77281;BME280;66339;47.262;17.144;2022-12-26T06:01:31;100519.63;;;20.19;44.39
77281;BME280;66339;47.262;17.144;2022-12-26T06:03:59;100518.03;;;20.18;44.36
77281;BME280;66339;47.262;17.144;2022-12-26T06:06:26;100515.34;;;20.18;44.35
77281;BME280;66339;47.262;17.144;2022-12-26T06:08:56;100514.53;;;20.17;44.41
77281;BME280;66339;47.262;17.144;2022-12-26T06:11:25;100510.47;;;20.20;44.44
77281;BME280;66339;47.262;17.144;2022-12-26T06:13:53;100493.31;;;20.21;44.46
77281;BME280;66339;47.262;17.144;2022-12-26T06:16:23;100498.09;;;20.24;44.46
77281;BME280;66339;47.262;17.144;2022-12-26T06:18:50;100501.34;;;20.26;44.47
77281;BME280;66339;47.262;17.144;2022-12-26T06:21:18;100517.44;;;20.26;44.37
77281;BME280;66339;47.262;17.144;2022-12-26T06:23:49;100522.28;;;20.29;44.29
77281;BME280;66339;47.262;17.144;2022-12-26T06:26:17;100520.69;;;20.28;44.21
77281;BME280;66339;47.262;17.144;2022-12-26T06:28:47;100515.31;;;20.28;44.15
77281;BME280;66339;47.262;17.144;2022-12-26T06:31:22;100514.22;;;20.29;44.06
77281;BME280;66339;47.262;17.144;2022-12-26T06:33:54;100513.69;;;20.27;44.38
77281;BME280;66339;47.262;17.144;2022-12-26T06:36:26;100520.69;;;20.28;44.97
77281;BME280;66339;47.262;17.144;2022-12-26T06:38:57;100543.22;;;20.27;45.18
77281;BME280;66339;47.262;17.144;2022-12-26T06:41:33;100552.91;;;20.28;45.29
77281;BME280;66339;47.262;17.144;2022-12-26T06:44:03;100547.53;;;20.28;44.04
77281;BME280;66339;47.262;17.144;2022-12-26T06:46:44;100546.72;;;20.27;44.59
77281;BME280;66339;47.262;17.144;2022-12-26T06:49:14;100549.94;;;20.29;44.49
77281;BME280;66339;47.262;17.144;2022-12-26T06:51:41;100557.19;;;20.29;44.47
77281;BME280;66339;47.262;17.144;2022-12-26T06:54:12;100550.75;;;20.30;44.39
77281;BME280;66339;47.262;17.144;2022-12-26T06:56:39;100552.34;;;20.31;44.24
77281;BME280;66339;47.262;17.144;2022-12-26T06:59:11;100548.59;;;20.32;44.04
77281;BME280;66339;47.262;17.144;2022-12-26T07:01:44;100551.00;;;20.33;43.89
77281;BME280;66339;47.262;17.144;2022-12-26T07:04:12;100553.38;;;20.35;43.93
77281;BME280;66339;47.262;17.144;2022-12-26T07:06:46;100555.03;;;20.36;44.10
77281;BME280;66339;47.262;17.144;2022-12-26T07:09:17;100552.84;;;20.38;44.00
77281;BME280;66339;47.262;17.144;2022-12-26T07:11:46;100555.28;;;20.40;44.09
77281;BME280;66339;47.262;17.144;2022-12-26T07:14:17;100563.84;;;20.42;44.18
77281;BME280;66339;47.262;17.144;2022-12-26T07:16:46;100562.50;;;20.44;44.38
77281;BME280;66339;47.262;17.144;2022-12-26T07:19:23;100569.47;;;20.45;44.72
77281;BME280;66339;47.262;17.144;2022-12-26T07:21:50;100572.69;;;20.47;44.31
77281;BME280;66339;47.262;17.144;2022-12-26T07:24:19;100563.00;;;20.46;44.38
77281;BME280;66339;47.262;17.144;2022-12-26T07:26:53;100567.31;;;20.47;44.51
77281;BME280;66339;47.262;17.144;2022-12-26T07:29:26;100573.25;;;20.49;44.54
77281;BME280;66339;47.262;17.144;2022-12-26T07:31:53;100582.66;;;20.52;44.69
77281;BME280;66339;47.262;17.144;2022-12-26T07:34:20;100578.59;;;20.54;44.70
77281;BME280;66339;47.262;17.144;2022-12-26T07:36:55;100577.53;;;20.55;44.83
77281;BME280;66339;47.262;17.144;2022-12-26T07:39:22;100592.56;;;20.56;44.67
77281;BME280;66339;47.262;17.144;2022-12-26T07:41:55;100593.66;;;20.55;44.72
77281;BME280;66339;47.262;17.144;2022-12-26T07:44:27;100601.16;;;20.58;44.80
77281;BME280;66339;47.262;17.144;2022-12-26T07:47:00;100609.75;;;20.61;44.70
77281;BME280;66339;47.262;17.144;2022-12-26T07:49:30;100607.56;;;20.63;44.77
77281;BME280;66339;47.262;17.144;2022-12-26T07:52:05;100614.28;;;20.65;44.82
77281;BME280;66339;47.262;17.144;2022-12-26T07:54:37;100614.00;;;20.67;44.97
77281;BME280;66339;47.262;17.144;2022-12-26T07:57:13;100633.34;;;20.69;45.01
77281;BME280;66339;47.262;17.144;2022-12-26T08:00:04;100634.97;;;20.70;44.79
77281;BME280;66339;47.262;17.144;2022-12-26T08:02:40;100631.72;;;20.73;45.44
77281;BME280;66339;47.262;17.144;2022-12-26T08:05:10;100633.06;;;20.75;45.53
77281;BME280;66339;47.262;17.144;2022-12-26T08:07:45;100631.69;;;20.78;45.54
77281;BME280;66339;47.262;17.144;2022-12-26T08:10:15;100637.63;;;20.80;45.68
77281;BME280;66339;47.262;17.144;2022-12-26T08:12:45;100638.13;;;20.82;45.76
77281;BME280;66339;47.262;17.144;2022-12-26T08:15:17;100644.03;;;20.84;45.83
77281;BME280;66339;47.262;17.144;2022-12-26T08:17:50;100636.78;;;20.84;45.65
77281;BME280;66339;47.262;17.144;2022-12-26T08:20:20;100634.59;;;20.87;45.62
77281;BME280;66339;47.262;17.144;2022-12-26T08:22:53;100630.06;;;20.87;45.57
77281;BME280;66339;47.262;17.144;2022-12-26T08:25:23;100630.84;;;20.88;45.57
77281;BME280;66339;47.262;17.144;2022-12-26T08:27:53;100627.88;;;20.89;45.50
77281;BME280;66339;47.262;17.144;2022-12-26T08:30:26;100638.06;;;20.92;45.45
77281;BME280;66339;47.262;17.144;2022-12-26T08:32:59;100634.31;;;20.93;45.25
77281;BME280;66339;47.262;17.144;2022-12-26T08:35:33;100636.72;;;20.95;45.11
77281;BME280;66339;47.262;17.144;2022-12-26T08:38:03;100643.97;;;20.94;45.06
77281;BME280;66339;47.262;17.144;2022-12-26T08:40:37;100641.28;;;20.94;45.00
77281;BME280;66339;47.262;17.144;2022-12-26T08:43:12;100645.06;;;20.93;44.97
77281;BME280;66339;47.262;17.144;2022-12-26T08:46:09;100640.47;;;20.94;44.90
77281;BME280;66339;47.262;17.144;2022-12-26T08:48:38;100639.69;;;20.93;44.89
77281;BME280;66339;47.262;17.144;2022-12-26T08:51:21;100637.00;;;20.93;44.90
77281;BME280;66339;47.262;17.144;2022-12-26T08:53:58;100642.12;;;20.95;44.67
77281;BME280;66339;47.262;17.144;2022-12-26T08:56:26;100647.50;;;20.95;44.36
77281;BME280;66339;47.262;17.144;2022-12-26T08:58:53;100645.84;;;20.94;44.22
77281;BME280;66339;47.262;17.144;2022-12-26T09:01:25;100646.66;;;20.94;44.61
77281;BME280;66339;47.262;17.144;2022-12-26T09:04:02;100655.25;;;20.96;44.73
77281;BME280;66339;47.262;17.144;2022-12-26T09:06:34;100656.88;;;20.97;44.77
77281;BME280;66339;47.262;17.144;2022-12-26T09:09:04;100658.47;;;20.98;44.70
77281;BME280;66339;47.262;17.144;2022-12-26T09:11:32;100657.13;;;21.01;44.67
77281;BME280;66339;47.262;17.144;2022-12-26T09:14:05;100659.53;;;21.02;44.64
77281;BME280;66339;47.262;17.144;2022-12-26T09:16:40;100662.75;;;21.04;44.56
77281;BME280;66339;47.262;17.144;2022-12-26T09:19:15;100658.97;;;21.05;44.51
77281;BME280;66339;47.262;17.144;2022-12-26T09:21:46;100652.25;;;21.08;44.48
77281;BME280;66339;47.262;17.144;2022-12-26T09:24:16;100649.25;;;21.09;44.41
77281;BME280;66339;47.262;17.144;2022-12-26T09:26:47;100653.03;;;21.08;44.44
77281;BME280;66339;47.262;17.144;2022-12-26T09:29:17;100657.06;;;21.11;44.42
77281;BME280;66339;47.262;17.144;2022-12-26T09:31:47;100654.09;;;21.13;44.40
77281;BME280;66339;47.262;17.144;2022-12-26T09:34:20;100651.41;;;21.13;44.40
77281;BME280;66339;47.262;17.144;2022-12-26T09:36:50;100654.88;;;21.13;44.35
77281;BME280;66339;47.262;17.144;2022-12-26T09:39:20;100657.31;;;21.15;44.39
77281;BME280;66339;47.262;17.144;2022-12-26T09:41:58;100651.94;;;21.15;44.31
77281;BME280;66339;47.262;17.144;2022-12-26T09:44:38;100654.88;;;21.13;44.33
77281;BME280;66339;47.262;17.144;2022-12-26T09:49:53;100639.81;;;21.17;44.18
77281;BME280;66339;47.262;17.144;2022-12-26T09:52:29;100636.84;;;21.19;44.10
77281;BME280;66339;47.262;17.144;2022-12-26T09:58:10;100642.69;;;21.26;43.87
77281;BME280;66339;47.262;17.144;2022-12-26T10:00:50;100641.91;;;21.25;43.72
77281;BME280;66339;47.262;17.144;2022-12-26T10:03:18;100637.31;;;21.26;43.44
77281;BME280;66339;47.262;17.144;2022-12-26T10:06:12;100637.31;;;21.26;44.12
77281;BME280;66339;47.262;17.144;2022-12-26T10:14:19;100634.34;;;21.32;45.19
77281;BME280;66339;47.262;17.144;2022-12-26T10:17:23;100631.66;;;21.32;45.12
77281;BME280;66339;47.262;17.144;2022-12-26T10:25:20;100649.97;;;21.30;45.28
77281;BME280;66339;47.262;17.144;2022-12-26T10:27:52;100642.69;;;21.31;46.07
77281;BME280;66339;47.262;17.144;2022-12-26T10:30:33;100641.59;;;21.32;46.63
77281;BME280;66339;47.262;17.144;2022-12-26T10:33:08;100641.59;;;21.32;46.74
77281;BME280;66339;47.262;17.144;2022-12-26T10:35:41;100643.22;;;21.33;47.44
77281;BME280;66339;47.262;17.144;2022-12-26T10:38:37;100634.09;;;21.34;47.36
77281;BME280;66339;47.262;17.144;2022-12-26T10:41:31;100631.41;;;21.34;47.58
77281;BME280;66339;47.262;17.144;2022-12-26T10:44:07;100628.94;;;21.38;47.77
77281;BME280;66339;47.262;17.144;2022-12-26T10:47:00;100635.94;;;21.39;47.47
77281;BME280;66339;47.262;17.144;2022-12-26T10:49:33;100624.38;;;21.38;47.24
77281;BME280;66339;47.262;17.144;2022-12-26T10:52:03;100609.81;;;21.39;47.28
77281;BME280;66339;47.262;17.144;2022-12-26T10:54:32;100609.03;;;21.39;47.30
77281;BME280;66339;47.262;17.144;2022-12-26T10:57:00;100604.44;;;21.39;47.29
77281;BME280;66339;47.262;17.144;2022-12-26T10:59:50;100602.84;;;21.38;47.42
77281;BME280;66339;47.262;17.144;2022-12-26T11:02:30;100600.16;;;21.38;47.37
77281;BME280;66339;47.262;17.144;2022-12-26T11:04:59;100586.69;;;21.38;47.39
77281;BME280;66339;47.262;17.144;2022-12-26T11:11:01;100576.44;;;21.40;47.52
77281;BME280;66339;47.262;17.144;2022-12-26T11:13:34;100572.66;;;21.41;47.57
77281;BME280;66339;47.262;17.144;2022-12-26T11:16:06;100575.34;;;21.41;47.64
77281;BME280;66339;47.262;17.144;2022-12-26T11:18:47;100574.28;;;21.42;47.71
77281;BME280;66339;47.262;17.144;2022-12-26T11:21:22;100571.59;;;21.42;47.78
77281;BME280;66339;47.262;17.144;2022-12-26T11:23:51;100573.19;;;21.43;47.89
77281;BME280;66339;47.262;17.144;2022-12-26T11:29:09;100556.50;;;21.41;47.58
77281;BME280;66339;47.262;17.144;2022-12-26T11:31:39;100553.81;;;21.41;47.64
77281;BME280;66339;47.262;17.144;2022-12-26T11:34:15;100548.44;;;21.41;47.51
77281;BME280;66339;47.262;17.144;2022-12-26T11:36:49;100540.38;;;21.41;47.58
77281;BME280;66339;47.262;17.144;2022-12-26T11:39:25;100534.97;;;21.41;47.72
77281;BME280;66339;47.262;17.144;2022-12-26T11:41:59;100536.88;;;21.41;47.69
77281;BME280;66339;47.262;17.144;2022-12-26T11:44:30;100543.84;;;21.42;47.74
77281;BME280;66339;47.262;17.144;2022-12-26T11:47:08;100547.62;;;21.41;47.55
77281;BME280;66339;47.262;17.144;2022-12-26T11:52:50;100555.16;;;21.44;47.83
77281;BME280;66339;47.262;17.144;2022-12-26T11:55:32;100561.88;;;21.46;47.71
77281;BME280;66339;47.262;17.144;2022-12-26T12:01:11;100537.59;;;21.51;47.67
77281;BME280;66339;47.262;17.144;2022-12-26T12:06:31;100544.00;;;21.55;46.28
77281;BME280;66339;47.262;17.144;2022-12-26T12:12:25;100534.09;;;21.51;46.45
77281;BME280;66339;47.262;17.144;2022-12-26T12:15:14;100530.62;;;21.50;46.72
77281;BME280;66339;47.262;17.144;2022-12-26T12:21:20;100524.13;;;21.51;46.99
77281;BME280;66339;47.262;17.144;2022-12-26T12:23:46;100524.94;;;21.52;46.99
77281;BME280;66339;47.262;17.144;2022-12-26T12:26:31;100514.47;;;21.50;47.33
77281;BME280;66339;47.262;17.144;2022-12-26T12:31:47;100519.25;;;21.53;48.01
77281;BME280;66339;47.262;17.144;2022-12-26T12:34:44;100517.66;;;21.52;48.04
77281;BME280;66339;47.262;17.144;2022-12-26T12:40:31;100504.19;;;21.52;47.95
77281;BME280;66339;47.262;17.144;2022-12-26T12:43:13;100513.06;;;21.53;47.79
77281;BME280;66339;47.262;17.144;2022-12-26T12:46:10;100514.97;;;21.52;47.72
77281;BME280;66339;47.262;17.144;2022-12-26T12:48:59;100508.50;;;21.53;47.73
77281;BME280;66339;47.262;17.144;2022-12-26T13:00:24;100484.87;;;21.50;47.77
77281;BME280;66339;47.262;17.144;2022-12-26T13:06:16;100461.72;;;21.49;47.83
77281;BME280;66339;47.262;17.144;2022-12-26T13:08:56;100469.78;;;21.49;47.74
77281;BME280;66339;47.262;17.144;2022-12-26T13:11:37;100477.84;;;21.49;47.66
77281;BME280;66339;47.262;17.144;2022-12-26T13:14:42;100473.56;;;21.48;47.68
77281;BME280;66339;47.262;17.144;2022-12-26T13:17:22;100469.28;;;21.47;47.69
77281;BME280;66339;47.262;17.144;2022-12-26T13:20:10;100482.75;;;21.47;47.78
77281;BME280;66339;47.262;17.144;2022-12-26T13:22:50;100496.19;;;21.47;47.81
77281;BME280;66339;47.262;17.144;2022-12-26T13:25:25;100502.66;;;21.46;47.81
77281;BME280;66339;47.262;17.144;2022-12-26T13:27:55;100507.25;;;21.46;47.73
77281;BME280;66339;47.262;17.144;2022-12-26T13:30:24;100509.13;;;21.45;47.91
77281;BME280;66339;47.262;17.144;2022-12-26T13:32:58;100507.25;;;21.46;47.83
77281;BME280;66339;47.262;17.144;2022-12-26T13:36:46;100503.72;;;21.45;47.88
77281;BME280;66339;47.262;17.144;2022-12-26T13:41:21;100504.03;;;21.44;47.80
77281;BME280;66339;47.262;17.144;2022-12-26T14:03:23;100489.88;;;21.28;46.55
77281;BME280;66339;47.262;17.144;2022-12-26T14:06:15;100495.03;;;21.24;46.54
77281;BME280;66339;47.262;17.144;2022-12-26T14:08:57;100509.03;;;21.21;46.83
77281;BME280;66339;47.262;17.144;2022-12-26T14:26:11;100510.50;;;21.08;47.12
77281;BME280;66339;47.262;17.144;2022-12-26T14:31:20;100504.06;;;21.04;47.05
77281;BME280;66339;47.262;17.144;2022-12-26T14:36:58;100505.72;;;21.00;47.05
77281;BME280;66339;47.262;17.144;2022-12-26T14:39:35;100504.13;;;20.99;47.05
77281;BME280;66339;47.262;17.144;2022-12-26T14:47:08;100503.88;;;20.96;46.99
77281;BME280;66339;47.262;17.144;2022-12-26T14:49:40;100491.53;;;20.95;46.98
77281;BME280;66339;47.262;17.144;2022-12-26T14:54:51;100496.66;;;20.91;46.99
77281;BME280;66339;47.262;17.144;2022-12-26T14:57:44;100491.84;;;20.88;46.96
77281;BME280;66339;47.262;17.144;2022-12-26T15:05:41;100490.25;;;20.87;46.91
77281;BME280;66339;47.262;17.144;2022-12-26T15:19:54;100493.75;;;20.82;46.82
77281;BME280;66339;47.262;17.144;2022-12-26T15:30:50;100470.41;;;20.78;46.81
77281;BME280;66339;47.262;17.144;2022-12-26T15:36:30;100474.72;;;20.74;46.84
77281;BME280;66339;47.262;17.144;2022-12-26T15:47:51;100460.25;;;20.70;46.79
77281;BME280;66339;47.262;17.144;2022-12-26T15:50:56;100450.59;;;20.69;46.78
77281;BME280;66339;47.262;17.144;2022-12-26T15:53:42;100436.63;;;20.67;46.81
77281;BME280;66339;47.262;17.144;2022-12-26T15:56:40;100436.63;;;20.67;46.79
77281;BME280;66339;47.262;17.144;2022-12-26T16:02:13;100439.88;;;20.64;46.78
77281;BME280;66339;47.262;17.144;2022-12-26T16:04:45;100440.69;;;20.64;46.77
77281;BME280;66339;47.262;17.144;2022-12-26T16:09:57;100448.50;;;20.61;46.80
77281;BME280;66339;47.262;17.144;2022-12-26T16:12:34;100460.06;;;20.61;46.78
77281;BME280;66339;47.262;17.144;2022-12-26T16:17:42;100456.81;;;20.59;46.78
77281;BME280;66339;47.262;17.144;2022-12-26T16:20:29;100454.44;;;20.57;46.78
77281;BME280;66339;47.262;17.144;2022-12-26T16:22:59;100453.63;;;20.57;46.75
77281;BME280;66339;47.262;17.144;2022-12-26T16:25:29;100449.06;;;20.57;46.73
77281;BME280;66339;47.262;17.144;2022-12-26T16:27:59;100456.59;;;20.55;46.75
77281;BME280;66339;47.262;17.144;2022-12-26T16:30:34;100467.34;;;20.55;46.75